Time;durP1;ratioP1;P1;durP2;ratioP2;P2;SDS_P1;SDS_P2;PMS_P1;PMS_P2;Temp;Humidity;BMP_temperature;BMP_pressure;BME280_temperature;BME280_humidity;BME280_pressure;Samples;Min_cycle;Max_cycle;Signal;HPM_P1;HPM_P2
2021/07/13 00:01:25;;;;;;;;;;;;;;;26.53;37.40;100547.81;5079404;28;783;-45
2021/07/13 00:03:53;;;;;;;;;;;;;;;26.53;37.24;100556.75;5078398;28;1050;-23
2021/07/13 00:06:18;;;;;;;;;;;;;;;26.54;37.50;100554.91;5078822;28;809;-31
2021/07/13 00:08:44;;;;;;;;;;;;;;;26.55;37.22;100559.28;5079212;28;796;-44
2021/07/13 00:11:09;;;;;;;;;;;;;;;26.64;37.17;100558.16;5078803;28;1914;-25
2021/07/13 00:13:34;;;;;;;;;;;;;;;26.63;37.62;100558.34;5078488;28;936;-45
2021/07/13 00:15:59;;;;;;;;;;;;;;;26.69;37.92;100554.94;5079395;28;783;-44
2021/07/13 00:18:25;;;;;;;;;;;;;;;26.78;38.00;100555.66;5078428;28;1006;-44
2021/07/13 00:20:50;;;;;;;;;;;;;;;26.83;37.62;100552.41;5078514;28;939;-41
2021/07/13 00:23:15;;;;;;;;;;;;;;;26.82;37.00;100556.13;5078811;28;824;-44
2021/07/13 00:25:41;;;;;;;;;;;;;;;26.72;37.14;100545.63;5078477;28;760;-21
2021/07/13 00:28:06;;;;;;;;;;;;;;;26.65;37.06;100542.81;5076901;28;816;-44
2021/07/13 00:30:31;;;;;;;;;;;;;;;26.69;37.17;100541.44;5078404;28;1901;-21
2021/07/13 00:32:57;;;;;;;;;;;;;;;26.72;36.96;100545.63;5078407;28;783;-44
2021/07/13 00:35:22;;;;;;;;;;;;;;;26.72;37.13;100540.22;5078246;28;938;-21
2021/07/13 00:37:48;;;;;;;;;;;;;;;26.74;37.71;100544.41;5078626;28;832;-41
2021/07/13 00:40:14;;;;;;;;;;;;;;;26.83;36.90;100550.56;5078740;28;843;-43
2021/07/13 00:42:40;;;;;;;;;;;;;;;26.83;36.37;100552.41;5078213;28;726;-24
2021/07/13 00:45:05;;;;;;;;;;;;;;;26.78;36.54;100556.50;5060148;28;1137;-43
2021/07/13 00:47:31;;;;;;;;;;;;;;;26.77;36.64;100554.84;5078114;28;804;-24
2021/07/13 00:49:58;;;;;;;;;;;;;;;26.77;36.83;100551.31;5077618;28;1902;-45
2021/07/13 00:52:23;;;;;;;;;;;;;;;26.74;36.68;100551.69;5078175;28;808;-44
2021/07/13 00:54:48;;;;;;;;;;;;;;;26.82;37.35;100561.53;5077770;28;1178;-44
2021/07/13 00:57:14;;;;;;;;;;;;;;;26.86;36.78;100562.84;5077931;28;815;-44
2021/07/13 00:59:39;;;;;;;;;;;;;;;26.69;36.85;100556.78;5078273;28;755;-23
2021/07/13 01:02:05;;;;;;;;;;;;;;;26.76;36.59;100560.41;5077926;28;870;-45
2021/07/13 01:04:30;;;;;;;;;;;;;;;26.74;37.03;100560.59;5077180;28;950;-21
2021/07/13 01:07:00;;;;;;;;;;;;;;;26.76;36.79;100558.56;5077550;28;828;-22
2021/07/13 01:09:38;;;;;;;;;;;;;;;26.78;36.90;100563.75;5059683;28;1982;-45
2021/07/13 01:12:16;;;;;;;;;;;;;;;26.75;37.23;100548.78;5077641;28;874;-36
2021/07/13 01:14:43;;;;;;;;;;;;;;;26.87;37.34;100553.72;5059501;28;836;-21
2021/07/13 01:17:15;;;;;;;;;;;;;;;26.77;36.80;100554.84;5059589;28;748;-27
2021/07/13 01:19:44;;;;;;;;;;;;;;;26.82;36.84;100556.97;5077125;28;1017;-43
2021/07/13 01:22:16;;;;;;;;;;;;;;;26.82;36.54;100550.75;5060104;28;813;-25
2021/07/13 01:25:00;;;;;;;;;;;;;;;26.83;36.38;100549.69;5077793;28;794;-45
2021/07/13 01:27:44;;;;;;;;;;;;;;;26.72;36.84;100551.00;5077633;28;826;-23
2021/07/13 01:30:10;;;;;;;;;;;;;;;26.70;37.19;100548.50;5077135;28;1909;-26
2021/07/13 01:32:35;;;;;;;;;;;;;;;26.75;37.47;100553.34;5077516;28;768;-31
2021/07/13 01:35:01;;;;;;;;;;;;;;;26.84;36.92;100556.78;5059017;28;946;-21
2021/07/13 01:37:26;;;;;;;;;;;;;;;26.78;36.54;100552.97;5077237;28;732;-22
2021/07/13 01:39:52;;;;;;;;;;;;;;;26.75;36.52;100548.78;5077091;28;755;-45
2021/07/13 01:42:17;;;;;;;;;;;;;;;26.91;36.50;100549.59;5059099;28;760;-45
2021/07/13 01:44:42;;;;;;;;;;;;;;;26.76;36.81;100550.44;5076937;28;807;-45
2021/07/13 01:47:08;;;;;;;;;;;;;;;26.76;36.94;100547.75;5077285;28;807;-23
2021/07/13 01:49:33;;;;;;;;;;;;;;;26.75;37.18;100553.34;5058270;28;1957;-27
2021/07/13 01:51:58;;;;;;;;;;;;;;;26.88;37.26;100550.84;5059214;28;768;-41
2021/07/13 01:54:24;;;;;;;;;;;;;;;26.89;37.56;100554.38;5059041;28;1258;-39
2021/07/13 01:56:50;;;;;;;;;;;;;;;26.89;37.49;100560.59;5058616;28;1271;-22
2021/07/13 01:59:16;;;;;;;;;;;;;;;26.90;36.75;100558.75;5059545;28;795;-44
2021/07/13 02:01:41;;;;;;;;;;;;;;;26.83;36.74;100564.03;5058945;28;1504;-21
2021/07/13 02:04:07;;;;;;;;;;;;;;;26.84;36.69;100563.00;5058342;28;1006;-43
2021/07/13 02:06:32;;;;;;;;;;;;;;;26.89;36.21;100557.91;5058786;28;854;-22
2021/07/13 02:09:00;;;;;;;;;;;;;;;26.82;36.49;100561.53;5076646;28;1906;-44
2021/07/13 02:11:26;;;;;;;;;;;;;;;26.90;36.67;100572.25;5076289;28;979;-43
2021/07/13 02:13:51;;;;;;;;;;;;;;;26.94;36.96;100561.91;5077203;28;772;-23
2021/07/13 02:16:17;;;;;;;;;;;;;;;26.93;36.68;100568.31;5076720;28;853;-25
2021/07/13 02:18:42;;;;;;;;;;;;;;;26.91;36.52;100568.50;5076270;28;935;-22
2021/07/13 02:21:09;;;;;;;;;;;;;;;26.87;36.62;100569.91;5076434;28;907;-44
2021/07/13 02:23:35;;;;;;;;;;;;;;;26.81;36.46;100566.09;5076873;28;792;-44
2021/07/13 02:26:01;;;;;;;;;;;;;;;26.81;36.67;100565.25;5076305;28;772;-23
2021/07/13 02:28:29;;;;;;;;;;;;;;;26.81;36.57;100562.56;5076469;28;871;-44
2021/07/13 02:30:56;;;;;;;;;;;;;;;26.96;36.61;100566.09;5076767;28;1965;-44
2021/07/13 02:33:23;;;;;;;;;;;;;;;26.95;37.05;100558.19;5057924;28;970;-22
2021/07/13 02:35:49;;;;;;;;;;;;;;;26.98;37.11;100558.66;5058144;28;944;-43
2021/07/13 02:38:14;;;;;;;;;;;;;;;27.06;37.26;100562.31;5076191;28;827;-45
2021/07/13 02:40:40;;;;;;;;;;;;;;;27.08;37.52;100560.25;5058469;28;859;-45
2021/07/13 02:43:05;;;;;;;;;;;;;;;27.09;37.29;100561.94;5059111;28;736;-45
2021/07/13 02:45:30;;;;;;;;;;;;;;;27.00;36.53;100567.41;5076516;28;764;-23
2021/07/13 02:47:56;;;;;;;;;;;;;;;26.85;36.12;100556.59;5075804;28;830;-45
2021/07/13 02:50:21;;;;;;;;;;;;;;;26.92;36.17;100562.09;5057839;28;1910;-44
2021/07/13 02:52:46;;;;;;;;;;;;;;;26.88;36.46;100564.31;5080065;28;855;-22
2021/07/13 02:55:19;;;;;;;;;;;;;;;26.89;36.55;100557.06;5058704;28;1177;-44
2021/07/13 02:57:44;;;;;;;;;;;;;;;26.82;36.74;100559.69;5060800;28;784;-43
2021/07/13 03:00:10;;;;;;;;;;;;;;;26.89;36.82;100555.19;5060112;28;833;-25
2021/07/13 03:02:35;;;;;;;;;;;;;;;26.93;37.00;100561.06;5060109;28;755;-46
2021/07/13 03:05:01;;;;;;;;;;;;;;;27.01;37.00;100560.13;5058779;28;962;-45
2021/07/13 03:07:26;;;;;;;;;;;;;;;26.93;36.65;100558.38;5058707;28;836;-46
2021/07/13 03:09:52;;;;;;;;;;;;;;;26.90;36.49;100562.28;5059999;28;1964;-23
2021/07/13 03:12:17;;;;;;;;;;;;;;;26.91;36.60;100563.09;5058852;28;925;-22
2021/07/13 03:14:43;;;;;;;;;;;;;;;26.97;36.52;100562.38;5058826;28;845;-25
2021/07/13 03:17:08;;;;;;;;;;;;;;;27.07;36.58;100554.03;5059609;28;821;-47
2021/07/13 03:19:34;;;;;;;;;;;;;;;27.02;36.91;100553.75;5059767;28;943;-25
2021/07/13 03:21:59;;;;;;;;;;;;;;;27.11;37.05;100554.50;5058315;28;764;-40
2021/07/13 03:24:24;;;;;;;;;;;;;;;27.12;37.17;100559.72;5052906;28;820;-40
2021/07/13 03:26:50;;;;;;;;;;;;;;;27.13;37.49;100555.97;5058299;28;830;-21
2021/07/13 03:29:16;;;;;;;;;;;;;;;27.19;37.69;100551.69;5052415;28;1914;-47
2021/07/13 03:31:41;;;;;;;;;;;;;;;26.73;40.25;100547.28;5058343;28;760;-22
2021/07/13 03:34:06;;;;;;;;;;;;;;;26.49;42.79;100552.75;5059369;28;958;-21
2021/07/13 03:36:32;;;;;;;;;;;;;;;26.37;43.75;100554.22;5059196;28;764;-25
2021/07/13 03:38:57;;;;;;;;;;;;;;;26.38;44.56;100550.50;5045492;28;885;-50
2021/07/13 03:41:23;;;;;;;;;;;;;;;26.14;44.51;100555.06;5038180;28;765;-26
2021/07/13 03:43:48;;;;;;;;;;;;;;;26.22;44.52;100556.84;5038430;28;785;-29
2021/07/13 03:46:13;;;;;;;;;;;;;;;26.38;44.49;100561.28;5037697;28;840;-46
2021/07/13 03:48:39;;;;;;;;;;;;;;;26.50;43.59;100561.69;5040458;28;927;-26
2021/07/13 03:51:04;;;;;;;;;;;;;;;26.57;45.63;100559.09;5049697;28;1895;-42
2021/07/13 03:53:30;;;;;;;;;;;;;;;26.67;45.32;100569.63;5059125;28;875;-24
2021/07/13 03:55:55;;;;;;;;;;;;;;;26.01;48.38;100566.44;5059205;28;1080;-33
2021/07/13 03:58:20;;;;;;;;;;;;;;;26.63;46.30;100566.44;5058571;28;863;-27
2021/07/13 04:00:45;;;;;;;;;;;;;;;27.20;43.42;100571.41;5059022;28;851;-40
2021/07/13 04:03:11;;;;;;;;;;;;;;;27.34;43.26;100567.03;5054387;28;1469;-43
2021/07/13 04:05:36;;;;;;;;;;;;;;;27.48;42.49;100570.72;5058705;28;1002;-44
2021/07/13 04:08:02;;;;;;;;;;;;;;;27.24;43.53;100572.72;5058679;28;859;-41
2021/07/13 04:10:27;;;;;;;;;;;;;;;27.01;45.35;100570.91;5058712;28;1914;-43
2021/07/13 04:12:53;;;;;;;;;;;;;;;27.26;44.36;100574.19;5059032;28;935;-43
2021/07/13 04:15:19;;;;;;;;;;;;;;;27.37;44.24;100572.03;5059101;28;728;-27
2021/07/13 04:17:45;;;;;;;;;;;;;;;27.39;44.42;100568.13;5058137;28;768;-43
2021/07/13 04:20:10;;;;;;;;;;;;;;;27.41;43.61;100562.53;5058495;28;990;-44
2021/07/13 04:22:36;;;;;;;;;;;;;;;27.47;43.79;100558.25;5058975;28;743;-46
2021/07/13 04:25:01;;;;;;;;;;;;;;;27.53;43.59;100559.34;5058601;28;771;-28
2021/07/13 04:27:27;;;;;;;;;;;;;;;27.51;43.78;100564.91;5058554;28;780;-26
2021/07/13 04:29:52;;;;;;;;;;;;;;;27.55;44.21;100560.81;5058475;28;1961;-43
2021/07/13 04:32:17;;;;;;;;;;;;;;;27.62;43.15;100564.44;5058254;28;827;-45
2021/07/13 04:34:42;;;;;;;;;;;;;;;27.63;44.20;100565.25;5058203;28;994;-26
2021/07/13 04:37:08;;;;;;;;;;;;;;;27.68;43.79;100565.56;5058504;28;804;-43
2021/07/13 04:39:33;;;;;;;;;;;;;;;27.65;43.92;100573.19;5058173;28;792;-42
2021/07/13 04:41:58;;;;;;;;;;;;;;;27.70;43.65;100565.38;5058375;28;808;-44
2021/07/13 04:44:24;;;;;;;;;;;;;;;27.73;44.35;100560.44;5059037;28;763;-43
2021/07/13 04:46:49;;;;;;;;;;;;;;;27.67;44.76;100566.56;5057697;28;852;-25
2021/07/13 04:49:14;;;;;;;;;;;;;;;27.57;44.92;100558.78;5057711;28;1902;-39
2021/07/13 04:51:39;;;;;;;;;;;;;;;27.64;45.07;100561.56;5058482;28;843;-26
2021/07/13 04:54:05;;;;;;;;;;;;;;;27.92;43.64;100562.69;5058133;28;799;-41
2021/07/13 04:56:30;;;;;;;;;;;;;;;27.82;43.21;100566.56;5072075;28;1277;-25
2021/07/13 04:58:55;;;;;;;;;;;;;;;27.69;44.21;100569.97;5078014;28;800;-36
2021/07/13 05:01:21;;;;;;;;;;;;;;;27.78;43.71;100561.72;5077398;28;847;-37
2021/07/13 05:03:46;;;;;;;;;;;;;;;27.90;43.64;100567.44;5077817;28;947;-42
2021/07/13 05:06:11;;;;;;;;;;;;;;;27.96;43.04;100570.22;5077832;28;1183;-25
2021/07/13 05:08:36;;;;;;;;;;;;;;;27.96;42.94;100572.91;5077653;28;763;-40
2021/07/13 05:11:02;;;;;;;;;;;;;;;28.11;42.33;100578.25;5077980;28;1909;-45
2021/07/13 05:13:27;;;;;;;;;;;;;;;28.17;42.14;100573.94;5077618;28;744;-44
2021/07/13 05:15:52;;;;;;;;;;;;;;;28.14;42.33;100576.19;5077408;28;776;-44
2021/07/13 05:18:18;;;;;;;;;;;;;;;28.26;41.87;100585.44;5078035;28;798;-45
2021/07/13 05:20:46;;;;;;;;;;;;;;;28.31;41.91;100587.59;5076687;28;1014;-35
2021/07/13 05:23:11;;;;;;;;;;;;;;;28.36;41.58;100577.06;5077029;28;812;-46
2021/07/13 05:25:37;;;;;;;;;;;;;;;28.36;41.31;100577.06;5078074;28;822;-44
2021/07/13 05:28:03;;;;;;;;;;;;;;;28.39;41.16;100583.94;5077257;28;812;-40
2021/07/13 05:30:28;;;;;;;;;;;;;;;28.30;41.74;100588.59;5076881;28;1902;-25
2021/07/13 05:32:54;;;;;;;;;;;;;;;28.26;41.93;100587.34;5077419;28;764;-40
2021/07/13 05:35:19;;;;;;;;;;;;;;;28.33;41.51;100599.91;5077033;28;951;-32
2021/07/13 05:37:44;;;;;;;;;;;;;;;28.47;41.11;100598.16;5077112;28;798;-25
2021/07/13 05:40:10;;;;;;;;;;;;;;;28.51;41.01;100604.00;5077450;28;846;-45
2021/07/13 05:42:35;;;;;;;;;;;;;;;28.51;41.02;100595.88;5077574;28;772;-43
2021/07/13 05:45:01;;;;;;;;;;;;;;;28.58;41.00;100604.03;5058701;28;824;-42
2021/07/13 05:47:26;;;;;;;;;;;;;;;28.66;40.67;100598.47;5076977;28;906;-48
2021/07/13 05:49:51;;;;;;;;;;;;;;;28.76;40.58;100598.13;5076475;28;1898;-24
2021/07/13 05:52:17;;;;;;;;;;;;;;;28.75;40.51;100601.88;5077169;28;763;-45
2021/07/13 05:54:42;;;;;;;;;;;;;;;28.62;41.21;100599.06;5077594;28;823;-24
2021/07/13 05:57:07;;;;;;;;;;;;;;;28.67;40.78;100602.03;5076377;28;1284;-28
2021/07/13 05:59:32;;;;;;;;;;;;;;;28.66;40.78;100597.66;5076510;28;787;-43
2021/07/13 06:01:58;;;;;;;;;;;;;;;28.72;40.65;100589.59;5077220;28;819;-43
2021/07/13 06:04:23;;;;;;;;;;;;;;;28.69;40.67;100591.84;5076500;28;911;-43
2021/07/13 06:06:48;;;;;;;;;;;;;;;28.73;40.65;100582.28;5076744;28;871;-23
2021/07/13 06:09:13;;;;;;;;;;;;;;;28.81;40.49;100592.97;5076836;28;1914;-24
2021/07/13 06:11:39;;;;;;;;;;;;;;;28.74;40.69;100586.69;5076548;28;859;-24
2021/07/13 06:14:04;;;;;;;;;;;;;;;28.71;40.81;100587.91;5076775;28;743;-30
2021/07/13 06:16:29;;;;;;;;;;;;;;;28.62;41.20;100588.25;5058990;28;862;-39
2021/07/13 06:18:55;;;;;;;;;;;;;;;28.82;40.47;100586.53;5076094;28;1013;-32
2021/07/13 06:21:20;;;;;;;;;;;;;;;28.76;40.80;100583.78;5076225;28;748;-22
2021/07/13 06:23:45;;;;;;;;;;;;;;;28.67;40.64;100581.22;5076453;28;835;-22
2021/07/13 06:26:10;;;;;;;;;;;;;;;28.80;40.45;100576.91;5076173;28;843;-42
2021/07/13 06:28:36;;;;;;;;;;;;;;;28.76;40.57;100573.78;5075718;28;1147;-25
2021/07/13 06:31:02;;;;;;;;;;;;;;;28.78;40.72;100573.59;5076642;28;1903;-42
2021/07/13 06:33:27;;;;;;;;;;;;;;;28.82;40.42;100574.84;5075868;28;1039;-23
2021/07/13 06:35:52;;;;;;;;;;;;;;;28.82;40.37;100574.84;5076579;28;744;-26
2021/07/13 06:38:17;;;;;;;;;;;;;;;28.76;40.40;100579.19;5076026;28;800;-26
2021/07/13 06:40:43;;;;;;;;;;;;;;;28.84;40.52;100576.31;5076260;28;843;-42
2021/07/13 06:43:08;;;;;;;;;;;;;;;28.85;40.58;100571.75;5076851;28;906;-42
2021/07/13 06:45:33;;;;;;;;;;;;;;;28.95;40.17;100571.38;5075948;28;1469;-41
2021/07/13 06:47:58;;;;;;;;;;;;;;;28.91;40.03;100573.66;5076119;28;523;-24
2021/07/13 06:50:24;;;;;;;;;;;;;;;28.84;40.40;100567.38;5075718;28;2026;-26
2021/07/13 06:52:50;;;;;;;;;;;;;;;28.85;40.33;100572.59;5075941;28;1003;-26
2021/07/13 06:55:15;;;;;;;;;;;;;;;28.99;40.35;100564.59;5075911;28;1195;-39
2021/07/13 06:57:40;;;;;;;;;;;;;;;28.92;40.37;100566.38;5076119;28;819;-27
2021/07/13 07:00:06;;;;;;;;;;;;;;;29.03;40.23;100559.59;5076244;28;871;-38
2021/07/13 07:02:32;;;;;;;;;;;;;;;28.94;39.95;100557.03;5076870;28;755;-40
2021/07/13 07:04:57;;;;;;;;;;;;;;;28.92;40.19;100561.81;5075714;28;955;-24
2021/07/13 07:07:22;;;;;;;;;;;;;;;28.93;40.37;100557.19;5075877;28;791;-41
2021/07/13 07:09:47;;;;;;;;;;;;;;;28.94;40.14;100557.03;5074910;28;1909;-40
2021/07/13 07:12:13;;;;;;;;;;;;;;;28.97;40.01;100553.09;5076223;28;760;-26
2021/07/13 07:14:38;;;;;;;;;;;;;;;29.05;40.13;100552.09;5076082;28;839;-23
2021/07/13 07:17:03;;;;;;;;;;;;;;;28.96;40.31;100549.53;5075302;28;856;-25
2021/07/13 07:19:28;;;;;;;;;;;;;;;29.01;39.82;100553.53;5075390;28;845;-26
2021/07/13 07:21:54;;;;;;;;;;;;;;;29.08;39.82;100548.97;5075755;28;799;-40
2021/07/13 07:24:19;;;;;;;;;;;;;;;29.07;39.77;100545.47;5075981;28;827;-32
2021/07/13 07:26:44;;;;;;;;;;;;;;;28.98;40.06;100548.53;5076031;28;751;-43
2021/07/13 07:29:09;;;;;;;;;;;;;;;29.00;39.50;100544.56;5075312;28;1901;-42
2021/07/13 07:31:35;;;;;;;;;;;;;;;29.09;39.55;100537.94;5075933;28;791;-42
2021/07/13 07:34:00;;;;;;;;;;;;;;;28.98;40.05;100543.94;5075849;28;943;-27
2021/07/13 07:36:26;;;;;;;;;;;;;;;29.01;40.24;100545.41;5075312;28;771;-38
2021/07/13 07:38:52;;;;;;;;;;;;;;;29.02;40.11;100539.81;5079691;28;843;-25
2021/07/13 07:41:17;;;;;;;;;;;;;;;29.02;39.96;100541.66;5079297;28;743;-34
2021/07/13 07:43:43;;;;;;;;;;;;;;;29.00;40.29;100544.56;5079100;28;755;-25
2021/07/13 07:46:08;;;;;;;;;;;;;;;29.15;39.81;100536.31;5079351;28;771;-28
2021/07/13 07:48:33;;;;;;;;;;;;;;;29.02;40.00;100536.25;5078974;28;946;-23
2021/07/13 07:50:58;;;;;;;;;;;;;;;29.09;40.07;100550.66;5078413;28;1963;-41
2021/07/13 07:53:24;;;;;;;;;;;;;;;29.06;40.03;100540.25;5079046;28;1415;-39
2021/07/13 07:55:49;;;;;;;;;;;;;;;29.02;40.31;100541.66;5078944;28;1054;-27
2021/07/13 07:58:14;;;;;;;;;;;;;;;29.07;39.92;100536.47;5078633;28;768;-25
2021/07/13 08:00:40;;;;;;;;;;;;;;;29.14;39.99;100536.50;5079054;28;752;-24
2021/07/13 08:03:05;;;;;;;;;;;;;;;29.18;40.04;100544.03;5079571;28;772;-40
2021/07/13 08:05:32;;;;;;;;;;;;;;;29.19;39.65;100537.59;5078098;28;954;-34
2021/07/13 08:07:57;;;;;;;;;;;;;;;29.23;39.53;100542.59;5078603;28;797;-41
2021/07/13 08:10:23;;;;;;;;;;;;;;;29.34;39.54;100536.59;5078793;28;1914;-25
2021/07/13 08:12:48;;;;;;;;;;;;;;;29.19;39.71;100540.31;5075737;28;939;-25
2021/07/13 08:15:14;;;;;;;;;;;;;;;29.18;39.68;100545.88;5078840;28;843;-25
2021/07/13 08:17:39;;;;;;;;;;;;;;;29.20;39.98;100541.13;5078423;28;892;-24
2021/07/13 08:20:05;;;;;;;;;;;;;;;29.36;39.66;100539.09;5075717;28;1091;-27
2021/07/13 08:22:32;;;;;;;;;;;;;;;29.52;39.47;100544.16;5078024;28;848;-31
2021/07/13 08:24:59;;;;;;;;;;;;;;;29.50;39.38;100545.38;5078581;28;760;-43
2021/07/13 08:27:24;;;;;;;;;;;;;;;29.55;39.23;100546.44;5073740;28;848;-28
2021/07/13 08:29:49;;;;;;;;;;;;;;;29.54;39.50;100544.78;5069151;28;1905;-22
2021/07/13 08:32:14;;;;;;;;;;;;;;;29.40;39.56;100543.91;5068990;28;959;-34
2021/07/13 08:34:40;;;;;;;;;;;;;;;29.36;39.70;100545.34;5050182;28;1225;-28
2021/07/13 08:37:05;;;;;;;;;;;;;;;29.39;39.86;100547.66;5050455;28;904;-29
2021/07/13 08:39:30;;;;;;;;;;;;;;;29.32;39.89;100542.22;5067969;28;962;-21
2021/07/13 08:41:56;;;;;;;;;;;;;;;29.33;40.18;100543.88;5072870;28;868;-39
2021/07/13 08:44:22;;;;;;;;;;;;;;;29.34;39.90;100532.00;5068130;28;852;-22
2021/07/13 08:46:47;;;;;;;;;;;;;;;29.36;40.05;100536.38;5076874;28;947;-23
2021/07/13 08:49:13;;;;;;;;;;;;;;;29.31;40.16;100537.00;5076456;28;1914;-21
2021/07/13 08:51:38;;;;;;;;;;;;;;;29.37;39.96;100543.47;5068285;28;952;-29
2021/07/13 08:54:03;;;;;;;;;;;;;;;29.36;39.82;100539.94;5069872;28;1270;-22
2021/07/13 08:56:29;;;;;;;;;;;;;;;29.38;39.95;100537.84;5069707;28;1021;-21
2021/07/13 08:58:54;;;;;;;;;;;;;;;29.42;39.92;100539.13;5054170;28;1416;-25
2021/07/13 09:01:20;;;;;;;;;;;;;;;29.39;39.88;100542.25;5068393;28;862;-23
2021/07/13 09:03:51;;;;;;;;;;;;;;;29.32;40.02;100541.38;5067046;28;924;-23
2021/07/13 09:06:17;;;;;;;;;;;;;;;29.32;40.05;100541.38;5071407;28;892;-42
2021/07/13 09:08:42;;;;;;;;;;;;;;;29.37;39.87;100538.88;5070079;28;922;-23
2021/07/13 09:11:10;;;;;;;;;;;;;;;29.39;39.77;100539.53;5051940;28;1976;-23
2021/07/13 09:13:44;;;;;;;;;;;;;;;29.49;39.74;100543.72;5070120;28;894;-22
2021/07/13 09:16:11;;;;;;;;;;;;;;;29.39;39.98;100538.69;5052992;28;960;-24
2021/07/13 09:18:37;;;;;;;;;;;;;;;29.35;39.93;100538.25;5073885;28;897;-27
2021/07/13 09:21:05;;;;;;;;;;;;;;;29.31;40.14;100540.53;5072129;28;929;-23
2021/07/13 09:23:30;;;;;;;;;;;;;;;29.29;40.08;100537.22;5072002;28;885;-25
2021/07/13 09:25:56;;;;;;;;;;;;;;;29.36;40.24;100544.50;5069495;28;1202;-25
2021/07/13 09:28:21;;;;;;;;;;;;;;;29.34;39.96;100542.00;5068890;28;826;-26
2021/07/13 09:30:50;;;;;;;;;;;;;;;29.48;39.85;100532.03;5069293;28;1897;-22
2021/07/13 09:33:17;;;;;;;;;;;;;;;29.42;39.92;100531.00;5069802;28;1155;-31
2021/07/13 09:35:58;;;;;;;;;;;;;;;29.45;39.92;100533.28;5070131;28;1143;-24
2021/07/13 09:38:24;;;;;;;;;;;;;;;29.41;39.87;100537.44;5068700;28;900;-25
2021/07/13 09:40:49;;;;;;;;;;;;;;;29.51;39.53;100538.94;5069646;28;905;-24
2021/07/13 09:43:19;;;;;;;;;;;;;;;29.49;39.58;100531.00;5072424;28;920;-23
2021/07/13 09:45:44;;;;;;;;;;;;;;;29.45;39.80;100529.72;5072496;28;907;-24
2021/07/13 09:48:10;;;;;;;;;;;;;;;29.50;39.70;100527.25;5077086;28;1087;-23
2021/07/13 09:50:43;;;;;;;;;;;;;;;29.43;40.03;100515.53;5074826;28;1961;-36
2021/07/13 09:53:09;;;;;;;;;;;;;;;29.55;39.70;100518.50;5075449;28;856;-42
2021/07/13 09:55:36;;;;;;;;;;;;;;;29.51;39.71;100519.97;5073380;28;1238;-25
2021/07/13 09:58:23;;;;;;;;;;;;;;;29.53;39.72;100518.69;5072796;28;881;-24
2021/07/13 10:00:49;;;;;;;;;;;;;;;29.54;39.63;100525.81;5073162;28;836;-22
2021/07/13 10:03:15;;;;;;;;;;;;;;;29.45;40.07;100521.59;5073668;28;878;-25
2021/07/13 10:05:41;;;;;;;;;;;;;;;29.54;39.79;100525.81;5075345;28;947;-42
2021/07/13 10:08:06;;;;;;;;;;;;;;;29.40;40.03;100524.09;5057708;28;897;-36
2021/07/13 10:10:32;;;;;;;;;;;;;;;29.41;40.00;100523.88;5072432;28;2265;-23
2021/07/13 10:12:57;;;;;;;;;;;;;;;29.43;39.78;100529.09;5076069;28;776;-34
2021/07/13 10:15:22;;;;;;;;;;;;;;;29.50;39.75;100521.81;5074492;28;813;-24
2021/07/13 10:17:48;;;;;;;;;;;;;;;29.52;39.54;100522.47;5058712;28;760;-41
2021/07/13 10:20:13;;;;;;;;;;;;;;;29.60;39.52;100526.88;5057361;28;936;-22
2021/07/13 10:22:42;;;;;;;;;;;;;;;29.59;39.38;100525.22;5076595;28;776;-43
2021/07/13 10:25:07;;;;;;;;;;;;;;;29.54;39.99;100531.22;5058615;28;1533;-24
2021/07/13 10:27:34;;;;;;;;;;;;;;;29.58;39.62;100527.06;5074022;28;924;-23
2021/07/13 10:30:00;;;;;;;;;;;;;;;29.53;39.77;100526.03;5074727;28;1901;-34
2021/07/13 10:32:25;;;;;;;;;;;;;;;29.58;39.80;100524.34;5076243;28;806;-27
2021/07/13 10:34:54;;;;;;;;;;;;;;;29.53;39.70;100516.00;5075557;28;950;-44
2021/07/13 10:37:29;;;;;;;;;;;;;;;29.49;39.86;100513.91;5076397;28;728;-42
2021/07/13 10:40:05;;;;;;;;;;;;;;;29.41;40.17;100510.34;5074302;28;861;-43
2021/07/13 10:42:39;;;;;;;;;;;;;;;29.63;39.56;100512.91;5072174;28;814;-25
2021/07/13 10:45:12;;;;;;;;;;;;;;;29.68;39.58;100510.41;5075092;28;908;-42
2021/07/13 10:47:38;;;;;;;;;;;;;;;29.60;39.84;100509.78;5073532;28;875;-41
2021/07/13 10:50:15;;;;;;;;;;;;;;;29.63;39.71;100512.09;5056277;28;1969;-43
2021/07/13 10:52:53;;;;;;;;;;;;;;;29.72;39.76;100515.44;5069208;28;915;-42
2021/07/13 10:55:31;;;;;;;;;;;;;;;29.66;39.82;100517.09;5073549;28;1198;-44
2021/07/13 10:58:09;;;;;;;;;;;;;;;29.67;39.74;100506.06;5074380;28;986;-31
2021/07/13 11:00:59;;;;;;;;;;;;;;;29.72;39.76;100505.44;5063791;28;833;-25
2021/07/13 11:03:27;;;;;;;;;;;;;;;29.61;39.95;100498.75;5075067;28;942;-40
2021/07/13 11:05:52;;;;;;;;;;;;;;;29.62;40.27;100494.16;5076020;28;1095;-40
2021/07/13 11:08:40;;;;;;;;;;;;;;;29.65;39.89;100500.00;5074021;28;848;-25
2021/07/13 11:11:09;;;;;;;;;;;;;;;29.69;40.14;100495.84;5066177;28;1934;-32
2021/07/13 11:13:35;;;;;;;;;;;;;;;29.79;39.76;100487.31;5077050;28;915;-24
2021/07/13 11:16:00;;;;;;;;;;;;;;;29.69;39.81;100493.13;5077283;28;848;-39
2021/07/13 11:18:29;;;;;;;;;;;;;;;29.69;39.87;100490.44;5077029;28;852;-23
2021/07/13 11:20:54;;;;;;;;;;;;;;;29.69;39.98;100492.28;5073904;28;828;-31
2021/07/13 11:23:26;;;;;;;;;;;;;;;29.74;39.80;100492.50;5076233;28;852;-31
2021/07/13 11:26:11;;;;;;;;;;;;;;;29.78;39.73;100490.22;5077042;28;926;-24
2021/07/13 11:28:37;;;;;;;;;;;;;;;29.68;40.34;100488.72;5077942;28;1080;-41
2021/07/13 11:31:03;;;;;;;;;;;;;;;29.65;40.43;100483.72;5077199;28;1968;-34
2021/07/13 11:33:28;;;;;;;;;;;;;;;29.64;40.34;100489.38;5074357;28;856;-24
2021/07/13 11:35:54;;;;;;;;;;;;;;;29.64;40.43;100481.22;5077809;28;903;-42
2021/07/13 11:38:23;;;;;;;;;;;;;;;29.72;39.92;100475.59;5078457;28;867;-32
2021/07/13 11:41:06;;;;;;;;;;;;;;;29.78;39.79;100482.91;5079084;28;808;-37
2021/07/13 11:43:31;;;;;;;;;;;;;;;29.72;40.40;100480.19;5077928;28;1085;-25
2021/07/13 11:46:17;;;;;;;;;;;;;;;29.58;40.37;100474.72;5077058;28;860;-23
2021/07/13 11:48:52;;;;;;;;;;;;;;;29.68;40.54;100475.19;5076086;28;1005;-41
2021/07/13 11:51:30;;;;;;;;;;;;;;;29.65;40.28;100481.03;5078075;28;1905;-27
2021/07/13 11:53:59;;;;;;;;;;;;;;;29.61;40.50;100474.38;5078943;28;788;-41
2021/07/13 11:56:28;;;;;;;;;;;;;;;29.60;40.49;100480.81;5076114;28;1453;-24
2021/07/13 11:58:53;;;;;;;;;;;;;;;29.77;40.11;100483.97;5075850;28;808;-27
2021/07/13 12:01:20;;;;;;;;;;;;;;;29.73;40.20;100479.97;5076634;28;946;-23
2021/07/13 12:03:46;;;;;;;;;;;;;;;29.62;40.90;100483.31;5076441;28;903;-38
2021/07/13 12:06:11;;;;;;;;;;;;;;;29.62;40.82;100484.16;5078357;28;1242;-23
2021/07/13 12:08:37;;;;;;;;;;;;;;;29.68;40.35;100479.75;5078612;28;1553;-22
2021/07/13 12:11:02;;;;;;;;;;;;;;;29.74;40.19;100484.38;5077437;28;1910;-42
2021/07/13 12:13:28;;;;;;;;;;;;;;;29.62;40.60;100475.16;5078550;28;748;-42
2021/07/13 12:15:53;;;;;;;;;;;;;;;29.76;40.31;100474.13;5078338;28;871;-42
2021/07/13 12:18:18;;;;;;;;;;;;;;;29.77;40.60;100477.69;5078490;28;823;-42
2021/07/13 12:20:44;;;;;;;;;;;;;;;29.74;40.90;100475.41;5059833;28;943;-22
2021/07/13 12:23:09;;;;;;;;;;;;;;;29.55;41.45;100475.13;5059229;28;947;-42
2021/07/13 12:25:34;;;;;;;;;;;;;;;29.75;41.30;100475.19;5076841;28;903;-25
2021/07/13 12:28:12;;;;;;;;;;;;;;;29.73;41.43;100479.97;5077203;28;958;-41
2021/07/13 12:30:37;;;;;;;;;;;;;;;29.76;41.07;100484.16;5077323;28;1909;-42
2021/07/13 12:33:03;;;;;;;;;;;;;;;29.82;41.32;100486.88;5078227;28;768;-24
2021/07/13 12:35:28;;;;;;;;;;;;;;;29.75;41.35;100494.16;5075426;28;986;-21
2021/07/13 12:37:54;;;;;;;;;;;;;;;29.82;41.21;100495.00;5074654;28;1118;-22
2021/07/13 12:40:19;;;;;;;;;;;;;;;29.80;41.20;100497.09;5076531;28;919;-37
2021/07/13 12:42:48;;;;;;;;;;;;;;;29.87;41.04;100501.69;5076804;28;896;-23
2021/07/13 12:45:13;;;;;;;;;;;;;;;29.85;41.56;100495.63;5077922;28;776;-42
2021/07/13 12:47:38;;;;;;;;;;;;;;;29.90;41.35;100491.25;5077319;28;805;-30
2021/07/13 12:50:04;;;;;;;;;;;;;;;29.92;41.33;100497.31;5076539;28;1981;-25
2021/07/13 12:52:33;;;;;;;;;;;;;;;29.89;41.51;100496.88;5076526;28;872;-23